createdAt,value
2023-02-17T00:02:24.715Z,101482.94
2023-02-17T00:05:29.520Z,101488.97
2023-02-17T00:08:34.031Z,101489.06
2023-02-17T00:11:38.490Z,101472.97
2023-02-17T00:14:43.166Z,101455.59
2023-02-17T00:17:47.784Z,101476.72
2023-02-17T00:20:52.628Z,101461.31
2023-02-17T00:23:58.637Z,101438.25
2023-02-17T00:27:02.733Z,101454.25
2023-02-17T00:30:07.168Z,101442.84
2023-02-17T00:33:11.496Z,101432.28
2023-02-17T00:36:19.221Z,101451.19
2023-02-17T00:39:23.777Z,101404.56
2023-02-17T00:42:27.867Z,101436.09
2023-02-17T00:45:35.565Z,101377.75
2023-02-17T00:48:39.542Z,101435.03
2023-02-17T00:51:44.513Z,101433.00
2023-02-17T00:54:49.097Z,101430.22
2023-02-17T00:57:53.981Z,101422.19
2023-02-17T01:00:58.768Z,101437.06
2023-02-17T01:04:03.296Z,101420.66
2023-02-17T01:07:07.404Z,101334.56
2023-02-17T01:10:12.296Z,101432.25
2023-02-17T01:13:18.423Z,101422.09
2023-02-17T01:16:27.758Z,101428.53
2023-02-17T01:19:31.844Z,101415.56
2023-02-17T01:22:36.054Z,101410.56
2023-02-17T01:25:45.477Z,101422.25
2023-02-17T01:28:50.146Z,101392.00
2023-02-17T01:31:54.101Z,101368.75
2023-02-17T01:34:58.440Z,101399.81
2023-02-17T01:38:02.575Z,101388.75
2023-02-17T01:41:07.935Z,101386.16
2023-02-17T01:44:19.592Z,101400.72
2023-02-17T01:47:23.678Z,101390.09
2023-02-17T01:50:37.083Z,101365.56
2023-02-17T01:53:57.009Z,101385.25
2023-02-17T01:57:03.261Z,101377.63
2023-02-17T02:00:10.117Z,101377.91
2023-02-17T02:03:17.301Z,101323.00
2023-02-17T02:06:25.166Z,101358.03
2023-02-17T02:09:43.008Z,101354.41
2023-02-17T02:12:47.462Z,101365.03
2023-02-17T02:16:04.733Z,101363.16
2023-02-17T02:19:56.861Z,101370.19
2023-02-17T02:23:48.296Z,101352.59
2023-02-17T02:27:14.473Z,101340.84
2023-02-17T02:30:54.761Z,101335.25
2023-02-17T02:34:17.118Z,101313.09
2023-02-17T02:37:54.336Z,101316.22
2023-02-17T02:41:05.845Z,101301.78
2023-02-17T02:44:11.758Z,101310.25
2023-02-17T02:47:52.073Z,101310.16
2023-02-17T02:51:10.058Z,101297.31
2023-02-17T02:54:37.332Z,101290.00
2023-02-17T02:57:58.419Z,101277.06
2023-02-17T03:01:27.666Z,101287.41
2023-02-17T03:04:38.719Z,101285.50
2023-02-17T03:08:11.760Z,101284.16
2023-02-17T03:11:32.847Z,101262.47
2023-02-17T03:14:40.346Z,101261.78
2023-02-17T03:17:44.659Z,101259.06
2023-02-17T03:20:59.364Z,101264.09
2023-02-17T03:24:04.007Z,101237.03
2023-02-17T03:27:11.073Z,101243.06
2023-02-17T03:30:15.727Z,101201.78
2023-02-17T03:33:20.111Z,101186.09
2023-02-17T03:36:24.562Z,101228.34
2023-02-17T03:39:28.969Z,101226.69
2023-02-17T03:42:35.282Z,101217.84
2023-02-17T03:45:40.094Z,101218.97
2023-02-17T03:48:44.704Z,101228.25
2023-02-17T03:51:49.087Z,101196.94
2023-02-17T03:54:54.080Z,101223.06
2023-02-17T03:57:58.040Z,101215.84
2023-02-17T04:01:03.244Z,101196.03
2023-02-17T04:04:07.910Z,101201.78
2023-02-17T04:07:12.282Z,101198.94
2023-02-17T04:10:16.950Z,101184.97
2023-02-17T04:13:21.625Z,101191.94
2023-02-17T04:16:25.972Z,101108.06
2023-02-17T04:19:29.915Z,101181.47
2023-02-17T04:22:34.936Z,101188.97
2023-02-17T04:25:39.788Z,101174.06
2023-02-17T04:28:45.324Z,101133.91
2023-02-17T04:31:49.821Z,101130.31
2023-02-17T04:34:54.398Z,101174.00
2023-02-17T04:37:58.990Z,101177.16
2023-02-17T04:41:03.532Z,101122.63
2023-02-17T04:44:07.940Z,101161.84
2023-02-17T04:47:12.484Z,101135.91
2023-02-17T04:50:16.954Z,101164.28
2023-02-17T04:53:21.691Z,101142.00
2023-02-17T04:56:26.125Z,101147.44
2023-02-17T04:59:30.586Z,101111.38
2023-02-17T05:02:34.969Z,101154.94
2023-02-17T05:05:39.657Z,101152.41
2023-02-17T05:08:44.471Z,101145.25
2023-02-17T05:11:48.757Z,101159.69
2023-02-17T05:14:52.853Z,101158.59
2023-02-17T05:17:57.137Z,101153.63
2023-02-17T05:21:01.155Z,101147.47
2023-02-17T05:24:05.608Z,101148.59
2023-02-17T05:27:10.069Z,101145.50
2023-02-17T05:30:15.335Z,101136.44
2023-02-17T05:33:19.856Z,101133.38
2023-02-17T05:36:24.795Z,101130.34
2023-02-17T05:39:29.269Z,101128.34
2023-02-17T05:42:33.861Z,101132.16
2023-02-17T05:45:38.335Z,101134.28
2023-02-17T05:48:43.581Z,101118.78
2023-02-17T05:51:47.901Z,101119.09
2023-02-17T05:54:52.267Z,101116.47
2023-02-17T05:57:56.583Z,101116.69
2023-02-17T06:01:02.105Z,101125.13
2023-02-17T06:04:06.960Z,101115.75
2023-02-17T06:07:10.956Z,101120.88
2023-02-17T06:10:15.193Z,101129.22
2023-02-17T06:13:19.726Z,101124.50
2023-02-17T06:16:24.462Z,101118.56
2023-02-17T06:19:28.762Z,101120.78
2023-02-17T06:22:33.297Z,101111.00
2023-02-17T06:25:37.721Z,101122.09
2023-02-17T06:28:43.085Z,101110.53
2023-02-17T06:31:47.819Z,101123.97
2023-02-17T06:34:52.259Z,101119.72
2023-02-17T06:37:56.593Z,101118.34
2023-02-17T06:41:01.333Z,101111.88
2023-02-17T06:44:06.253Z,101098.00
2023-02-17T06:47:10.497Z,101087.69
2023-02-17T06:50:15.780Z,101105.16
2023-02-17T06:53:19.918Z,101092.66
2023-02-17T06:56:24.675Z,101073.78
2023-02-17T06:59:29.257Z,101098.75
2023-02-17T07:02:34.613Z,101101.88
2023-02-17T07:05:40.794Z,101088.63
2023-02-17T07:08:45.430Z,101099.91
2023-02-17T07:11:51.913Z,101086.16
2023-02-17T07:14:56.557Z,101081.06
2023-02-17T07:18:01.974Z,101042.78
2023-02-17T07:21:08.004Z,101080.63
2023-02-17T07:24:13.068Z,101071.63
2023-02-17T07:27:17.660Z,101051.50
2023-02-17T07:30:22.911Z,101071.19
2023-02-17T07:33:27.340Z,101021.13
2023-02-17T07:36:31.938Z,101094.59
2023-02-17T07:39:38.737Z,101100.22
2023-02-17T07:42:42.686Z,101023.84
2023-02-17T07:45:47.199Z,101074.47
2023-02-17T07:48:51.841Z,101064.41
2023-02-17T07:51:56.380Z,101081.63
2023-02-17T07:55:02.227Z,101094.53
2023-02-17T07:58:07.325Z,101065.91
2023-02-17T08:01:15.271Z,101084.66
2023-02-17T08:04:19.821Z,101091.47
2023-02-17T08:07:24.235Z,101091.25
2023-02-17T08:10:46.987Z,101088.03
2023-02-17T08:13:51.399Z,101085.94
2023-02-17T08:16:57.455Z,101085.41
2023-02-17T08:20:08.163Z,101077.22
2023-02-17T08:23:13.431Z,101083.66
2023-02-17T08:26:18.662Z,101088.66
2023-02-17T08:29:24.917Z,101043.22
2023-02-17T08:32:29.266Z,101075.44
2023-02-17T08:35:33.837Z,101067.19
2023-02-17T08:38:37.808Z,101046.25
2023-02-17T08:41:44.830Z,101068.56
2023-02-17T08:44:49.738Z,101061.97
2023-02-17T08:47:53.833Z,101007.84
2023-02-17T08:50:58.093Z,101079.28
2023-02-17T08:54:03.480Z,101079.16
2023-02-17T08:57:07.761Z,101081.75
2023-02-17T09:00:12.375Z,101091.56
2023-02-17T09:03:17.302Z,101098.59
2023-02-17T09:06:22.190Z,101090.88
2023-02-17T09:09:30.574Z,101106.38
2023-02-17T09:12:35.233Z,101112.66
2023-02-17T09:15:39.776Z,101110.06
2023-02-17T09:18:44.357Z,101100.72
2023-02-17T09:21:51.982Z,101116.41
2023-02-17T09:24:56.023Z,101105.00
2023-02-17T09:28:00.569Z,101121.66
2023-02-17T09:31:18.122Z,101129.66
2023-02-17T09:34:22.790Z,101115.59
2023-02-17T09:37:27.122Z,101089.41
2023-02-17T09:40:44.406Z,101117.88
2023-02-17T09:43:49.429Z,101079.09
2023-02-17T09:47:17.266Z,101128.44
2023-02-17T09:50:28.515Z,101126.56
2023-02-17T09:53:38.579Z,101136.91
2023-02-17T09:56:47.172Z,101086.16
2023-02-17T10:00:03.821Z,101110.63
2023-02-17T10:03:38.580Z,101105.69
2023-02-17T10:06:47.419Z,101101.69
2023-02-17T10:10:05.778Z,101101.63
2023-02-17T10:13:11.126Z,101083.00
2023-02-17T10:16:24.264Z,101090.22
2023-02-17T10:19:35.494Z,101103.38
2023-02-17T10:22:42.457Z,101088.75
2023-02-17T10:25:58.291Z,101079.81
2023-02-17T10:29:35.187Z,101057.22
2023-02-17T10:33:00.735Z,101085.31
2023-02-17T10:36:23.830Z,101091.56
2023-02-17T10:39:50.597Z,101062.47
2023-02-17T10:43:03.057Z,101053.19
2023-02-17T10:46:10.367Z,101064.09
2023-02-17T10:49:26.520Z,101043.72
2023-02-17T10:52:48.944Z,101058.19
2023-02-17T10:56:05.779Z,101071.91
2023-02-17T10:59:25.073Z,101087.78
2023-02-17T11:02:45.176Z,101088.97
2023-02-17T11:06:08.613Z,101066.16
2023-02-17T11:09:33.704Z,101108.09
2023-02-17T11:12:43.348Z,101088.47
2023-02-17T11:15:48.942Z,101095.91
2023-02-17T11:18:53.749Z,101102.94
2023-02-17T11:22:00.387Z,101030.94
2023-02-17T11:25:21.823Z,101116.50
2023-02-17T11:28:27.548Z,101103.31
2023-02-17T11:31:32.672Z,101122.19
2023-02-17T11:34:41.633Z,101099.78
2023-02-17T11:37:45.656Z,101106.56
2023-02-17T11:40:59.974Z,101103.59
2023-02-17T11:44:10.837Z,101108.88
2023-02-17T11:47:36.964Z,101103.25
2023-02-17T11:50:54.640Z,101050.91
2023-02-17T11:54:26.520Z,101101.94
2023-02-17T11:57:52.455Z,101100.78
2023-02-17T12:01:25.455Z,101108.50
2023-02-17T12:04:33.005Z,101107.34
2023-02-17T12:08:06.330Z,101101.88
2023-02-17T12:12:01.285Z,101117.41
2023-02-17T12:15:44.719Z,101052.25
2023-02-17T12:19:18.384Z,101103.78
2023-02-17T12:22:48.936Z,101099.75
2023-02-17T12:26:31.292Z,101102.50
2023-02-17T12:29:44.632Z,101108.50
2023-02-17T12:32:48.987Z,101117.91
2023-02-17T12:36:07.431Z,101107.09
2023-02-17T12:39:30.051Z,101090.63
2023-02-17T12:42:41.794Z,101110.06
2023-02-17T12:45:50.202Z,101110.03
2023-02-17T12:49:01.246Z,101105.88
2023-02-17T12:52:27.450Z,101125.88
2023-02-17T12:55:55.398Z,101110.69
2023-02-17T12:59:13.776Z,101108.50
2023-02-17T13:02:23.965Z,101130.75
2023-02-17T13:05:41.791Z,101134.97
2023-02-17T13:08:54.211Z,101140.97
2023-02-17T13:12:26.708Z,101152.94
2023-02-17T13:15:39.098Z,101090.88
2023-02-17T13:18:46.150Z,101140.56
2023-02-17T13:21:57.028Z,101135.41
2023-02-17T13:25:01.829Z,101156.75
2023-02-17T13:28:38.159Z,101142.91
2023-02-17T13:31:58.288Z,101152.06
2023-02-17T13:35:28.477Z,101183.16
2023-02-17T13:38:33.826Z,101144.44
2023-02-17T13:41:49.904Z,101180.16
2023-02-17T13:44:54.324Z,101176.28
2023-02-17T13:48:00.647Z,101158.59
2023-02-17T13:51:07.582Z,101182.13
2023-02-17T13:54:14.115Z,101190.28
2023-02-17T13:57:29.452Z,101162.44
2023-02-17T14:00:35.331Z,101188.38
2023-02-17T14:03:47.604Z,101189.69
2023-02-17T14:06:53.553Z,101177.31
2023-02-17T14:09:58.022Z,101167.69
2023-02-17T14:13:02.625Z,101180.06
2023-02-17T14:16:08.303Z,101176.59
2023-02-17T14:19:17.129Z,101189.88
2023-02-17T14:22:29.592Z,101187.19
2023-02-17T14:25:37.895Z,101184.03
2023-02-17T14:28:42.386Z,101178.16
2023-02-17T14:31:52.523Z,101184.94
2023-02-17T14:35:09.169Z,101153.53
2023-02-17T14:38:40.086Z,101185.00
2023-02-17T14:41:44.959Z,101188.25
2023-02-17T14:44:49.384Z,101192.53
2023-02-17T14:47:53.799Z,101196.47
2023-02-17T14:50:59.226Z,101191.94
2023-02-17T14:54:10.358Z,101189.09
2023-02-17T14:57:16.520Z,101199.97
2023-02-17T15:00:21.361Z,101189.19
2023-02-17T15:03:25.776Z,101187.81
2023-02-17T15:06:51.615Z,101192.88
2023-02-17T15:09:56.503Z,101196.22
2023-02-17T15:13:00.691Z,101195.56
2023-02-17T15:16:08.083Z,101190.16
2023-02-17T15:19:14.625Z,101204.06
2023-02-17T15:22:19.181Z,101190.00
2023-02-17T15:25:23.701Z,101197.31
2023-02-17T15:28:28.170Z,101186.34
2023-02-17T15:31:34.832Z,101191.38
2023-02-17T15:34:38.993Z,101170.88
2023-02-17T15:37:43.284Z,101162.09
2023-02-17T15:40:47.893Z,101154.72
2023-02-17T15:43:53.688Z,101206.47
2023-02-17T15:46:58.202Z,101197.28
2023-02-17T15:50:02.641Z,101185.72
2023-02-17T15:53:07.114Z,101206.19
2023-02-17T15:56:32.944Z,101197.84
2023-02-17T15:59:38.837Z,101200.19
2023-02-17T16:02:43.162Z,101209.28
2023-02-17T16:05:47.168Z,101213.66
2023-02-17T16:08:51.035Z,101181.19
2023-02-17T16:11:58.183Z,101188.63
2023-02-17T16:15:02.531Z,101163.84
2023-02-17T16:18:07.657Z,101173.66
2023-02-17T16:21:12.576Z,101173.53
2023-02-17T16:24:16.862Z,101181.59
2023-02-17T16:27:21.153Z,101212.69
2023-02-17T16:30:36.421Z,101193.94
2023-02-17T16:33:40.814Z,101149.03
2023-02-17T16:36:45.957Z,101188.19
2023-02-17T16:39:50.421Z,101198.47
2023-02-17T16:42:55.125Z,101198.53
2023-02-17T16:46:23.830Z,101212.31
2023-02-17T16:49:41.473Z,101181.06
2023-02-17T16:52:46.165Z,101219.50
2023-02-17T16:55:50.578Z,101212.63
2023-02-17T16:58:54.834Z,101217.16
2023-02-17T17:01:59.633Z,101227.50
2023-02-17T17:05:04.263Z,101225.91
2023-02-17T17:08:08.723Z,101223.38
2023-02-17T17:11:17.312Z,101229.75
2023-02-17T17:14:21.934Z,101214.56
2023-02-17T17:17:26.561Z,101225.59
2023-02-17T17:20:35.020Z,101222.94
2023-02-17T17:23:40.430Z,101210.50
2023-02-17T17:26:50.998Z,101170.75
2023-02-17T17:29:55.340Z,101118.66
2023-02-17T17:33:00.411Z,101218.50
2023-02-17T17:36:11.281Z,101218.56
2023-02-17T17:39:18.805Z,101197.78
2023-02-17T17:42:23.295Z,101225.88
2023-02-17T17:45:28.123Z,101228.28
2023-02-17T17:48:55.083Z,101220.63
2023-02-17T17:52:08.590Z,101224.59
2023-02-17T17:55:13.433Z,101196.88
2023-02-17T17:58:18.065Z,101207.16
2023-02-17T18:01:23.120Z,101244.28
2023-02-17T18:04:27.668Z,101130.78
2023-02-17T18:07:34.858Z,101225.09
2023-02-17T18:10:42.005Z,101232.50
2023-02-17T18:13:49.109Z,101184.72
2023-02-17T18:16:53.577Z,101231.22
2023-02-17T18:19:57.953Z,101226.84
2023-02-17T18:23:02.454Z,101233.38
2023-02-17T18:26:09.920Z,101232.03
2023-02-17T18:29:15.214Z,101219.25
2023-02-17T18:32:19.867Z,101166.94
2023-02-17T18:35:24.576Z,101215.09
2023-02-17T18:38:28.995Z,101219.94
2023-02-17T18:41:35.427Z,101225.88
2023-02-17T18:44:39.805Z,101218.03
2023-02-17T18:47:44.950Z,101251.00
2023-02-17T18:51:00.039Z,101095.44
2023-02-17T18:54:51.612Z,101248.13
2023-02-17T18:57:57.235Z,101262.56
2023-02-17T19:01:01.235Z,101261.16
2023-02-17T19:04:05.849Z,101227.56
2023-02-17T19:07:10.380Z,101198.41
2023-02-17T19:10:14.911Z,101259.03
2023-02-17T19:13:19.286Z,101262.72
2023-02-17T19:16:29.295Z,101270.13
2023-02-17T19:19:36.624Z,101262.19
2023-02-17T19:22:41.659Z,101258.84
2023-02-17T19:25:46.153Z,101265.66
2023-02-17T19:28:50.466Z,101261.31
2023-02-17T19:31:55.152Z,101265.09
2023-02-17T19:34:59.553Z,101276.69
2023-02-17T19:38:03.909Z,101283.50
2023-02-17T19:41:10.860Z,101266.22
2023-02-17T19:44:20.481Z,101294.31
2023-02-17T19:47:25.116Z,101265.72
2023-02-17T19:50:32.871Z,101296.63
2023-02-17T19:57:06.997Z,101289.00
2023-02-17T20:00:11.820Z,101287.47
2023-02-17T20:03:19.327Z,101305.97
2023-02-17T20:06:39.980Z,101319.84
2023-02-17T20:09:44.242Z,101307.94
2023-02-17T20:12:51.088Z,101320.97
2023-02-17T20:16:07.982Z,101323.28
2023-02-17T20:19:12.740Z,101274.13
2023-02-17T20:22:17.243Z,101282.53
2023-02-17T20:25:24.606Z,101256.50
2023-02-17T20:28:29.340Z,101289.75
2023-02-17T20:31:36.375Z,101290.47
2023-02-17T20:34:41.118Z,101275.56
2023-02-17T20:37:48.006Z,101293.88
2023-02-17T20:40:53.027Z,101311.13
2023-02-17T20:44:00.845Z,101275.09
2023-02-17T20:47:05.341Z,101284.03
2023-02-17T20:50:12.343Z,101289.72
2023-02-17T20:53:19.145Z,101292.88
2023-02-17T20:56:25.795Z,101295.41
2023-02-17T20:59:32.651Z,101289.91
2023-02-17T21:02:37.068Z,101281.41
2023-02-17T21:05:41.467Z,101312.84
2023-02-17T21:08:45.763Z,101292.00
2023-02-17T21:11:50.378Z,101298.31
2023-02-17T21:14:54.301Z,101280.47
2023-02-17T21:17:58.832Z,101279.72
2023-02-17T21:21:03.241Z,101311.13
2023-02-17T21:24:07.745Z,101310.00
2023-02-17T21:27:12.027Z,101291.09
2023-02-17T21:30:16.762Z,101294.16
2023-02-17T21:33:21.265Z,101283.81
2023-02-17T21:36:28.973Z,101326.09
2023-02-17T21:39:33.724Z,101315.72
2023-02-17T21:42:59.798Z,101327.03
2023-02-17T21:46:12.154Z,101336.59
2023-02-17T21:49:16.775Z,101351.47
2023-02-17T21:52:20.758Z,101342.22
2023-02-17T21:55:25.109Z,101318.38
2023-02-17T21:58:30.818Z,101347.84
2023-02-17T22:01:41.512Z,101326.75
2023-02-17T22:04:45.780Z,101353.25
2023-02-17T22:07:51.118Z,101353.25
2023-02-17T22:10:55.294Z,101361.22
2023-02-17T22:14:02.041Z,101352.78
2023-02-17T22:17:06.226Z,101338.84
2023-02-17T22:20:10.889Z,101359.91
2023-02-17T22:23:15.050Z,101369.50
2023-02-17T22:26:21.914Z,101366.19
2023-02-17T22:29:26.209Z,101355.97
2023-02-17T22:32:30.599Z,101353.44
2023-02-17T22:35:35.340Z,101374.44
2023-02-17T22:38:40.155Z,101375.91
2023-02-17T22:41:44.443Z,101362.84
2023-02-17T22:44:48.909Z,101316.88
2023-02-17T22:47:53.859Z,101359.59
2023-02-17T22:50:58.668Z,101376.69
2023-02-17T22:54:04.272Z,101370.78
2023-02-17T22:57:08.801Z,101349.16
2023-02-17T23:00:13.482Z,101361.69
2023-02-17T23:03:31.208Z,101361.69
2023-02-17T23:06:39.344Z,101322.94
2023-02-17T23:09:43.327Z,101348.06
2023-02-17T23:12:47.694Z,101355.56
2023-02-17T23:15:51.902Z,101343.28
2023-02-17T23:18:56.286Z,101271.47
2023-02-17T23:22:12.096Z,101291.84
2023-02-17T23:25:16.762Z,101300.78
2023-02-17T23:28:24.109Z,101286.38
2023-02-17T23:31:28.838Z,101338.06
2023-02-17T23:34:32.917Z,101295.97
2023-02-17T23:37:37.204Z,101313.41
2023-02-17T23:40:42.164Z,101335.44
2023-02-17T23:43:46.240Z,101325.53
2023-02-17T23:46:50.594Z,101328.09
2023-02-17T23:49:54.460Z,101343.69
2023-02-17T23:52:58.385Z,101305.63
2023-02-17T23:56:30.299Z,101305.13
2023-02-17T23:59:34.720Z,101261.38
